Time;durP1;ratioP1;P1;durP2;ratioP2;P2;SDS_P1;SDS_P2;PMS_P1;PMS_P2;Temp;Humidity;BMP_temperature;BMP_pressure;BME280_temperature;BME280_humidity;BME280_pressure;Samples;Min_cycle;Max_cycle;Signal;HPM_P1;HPM_P2
2021/10/28 00:14:29;;;;;;;10.57;5.60;;;10.30;99.90;;;;;;5065206;28;21060;-72
2021/10/28 00:16:57;;;;;;;10.20;6.70;;;10.30;99.90;;;;;;5060935;28;20523;-72
2021/10/28 00:19:23;;;;;;;8.90;6.60;;;10.30;99.90;;;;;;5066348;28;20509;-72
2021/10/28 00:21:49;;;;;;;9.50;6.50;;;10.30;99.90;;;;;;5061458;28;20516;-72
2021/10/28 00:24:16;;;;;;;8.53;5.90;;;10.20;99.90;;;;;;5068224;28;20579;-72
2021/10/28 00:26:44;;;;;;;9.30;5.90;;;10.20;99.90;;;;;;5065323;28;20219;-71
2021/10/28 00:29:14;;;;;;;8.73;7.43;;;10.20;99.90;;;;;;5040463;28;20517;-71
2021/10/28 00:31:40;;;;;;;7.83;5.90;;;10.20;99.90;;;;;;5050979;28;20453;-71
2021/10/28 00:34:07;;;;;;;6.17;5.17;;;10.10;99.90;;;;;;5050502;28;20466;-72
2021/10/28 00:36:34;;;;;;;7.60;6.00;;;10.10;99.90;;;;;;5053119;28;20298;-71
2021/10/28 00:39:01;;;;;;;10.13;6.90;;;10.10;99.90;;;;;;5069064;28;20449;-71
2021/10/28 00:41:27;;;;;;;8.10;6.23;;;10.10;99.90;;;;;;5067509;28;20457;-72
2021/10/28 00:43:55;;;;;;;8.87;6.50;;;10.10;99.90;;;;;;5077191;28;20449;-71
2021/10/28 00:46:31;;;;;;;11.40;6.23;;;10.10;99.90;;;;;;5069345;28;20207;-72
2021/10/28 00:48:58;;;;;;;8.43;6.33;;;10.00;99.90;;;;;;5069038;28;20953;-71
2021/10/28 00:51:26;;;;;;;8.50;6.93;;;10.00;99.90;;;;;;5062065;28;20492;-73
2021/10/28 00:53:52;;;;;;;12.17;7.43;;;10.00;99.90;;;;;;5082690;28;20536;-72
2021/10/28 00:56:20;;;;;;;10.83;6.80;;;10.00;99.90;;;;;;5069186;28;20446;-71
2021/10/28 00:58:47;;;;;;;8.03;6.07;;;10.00;99.90;;;;;;5067345;28;20441;-72
2021/10/28 01:01:14;;;;;;;7.23;5.60;;;10.00;99.90;;;;;;5060677;28;20445;-71
2021/10/28 01:03:41;;;;;;;9.20;6.30;;;10.00;99.90;;;;;;5068708;28;20457;-71
2021/10/28 01:06:08;;;;;;;9.30;5.60;;;10.00;99.90;;;;;;5068903;28;20446;-72
2021/10/28 01:08:39;;;;;;;7.47;5.80;;;9.90;99.90;;;;;;5061096;28;20503;-71
2021/10/28 01:11:06;;;;;;;7.80;5.80;;;9.90;99.90;;;;;;5048578;28;20489;-72
2021/10/28 01:13:34;;;;;;;12.53;7.43;;;9.90;99.90;;;;;;5049973;28;20887;-71
2021/10/28 01:16:00;;;;;;;10.57;7.13;;;9.80;99.90;;;;;;5048671;28;20469;-71
2021/10/28 01:18:26;;;;;;;15.90;7.60;;;9.80;99.90;;;;;;5054524;28;20494;-71
2021/10/28 01:20:54;;;;;;;12.83;7.73;;;9.80;99.90;;;;;;5067251;28;20454;-72
2021/10/28 01:23:21;;;;;;;14.37;8.17;;;9.80;99.90;;;;;;5059554;28;20687;-70
2021/10/28 01:25:55;;;;;;;13.83;7.20;;;9.80;99.90;;;;;;5070337;28;20449;-71
2021/10/28 01:28:22;;;;;;;14.13;8.07;;;9.80;99.90;;;;;;5051979;28;20502;-73
2021/10/28 01:30:51;;;;;;;14.70;7.60;;;9.80;99.90;;;;;;5064056;28;20512;-71
2021/10/28 01:33:17;;;;;;;12.30;7.63;;;9.80;99.90;;;;;;5028022;28;20459;-71
2021/10/28 01:35:44;;;;;;;13.77;8.30;;;9.70;99.90;;;;;;5042421;28;20450;-71
2021/10/28 01:38:11;;;;;;;12.87;8.07;;;9.70;99.90;;;;;;5055154;28;20441;-71
2021/10/28 01:40:38;;;;;;;15.80;8.33;;;9.70;99.90;;;;;;5073036;28;20460;-74
2021/10/28 01:43:04;;;;;;;13.63;7.90;;;9.70;99.90;;;;;;5071899;28;20461;-74
2021/10/28 01:45:30;;;;;;;10.43;7.20;;;9.70;99.90;;;;;;5072968;28;20457;-71
2021/10/28 01:47:56;;;;;;;12.80;8.30;;;9.70;99.90;;;;;;5061479;28;20450;-69
2021/10/28 01:50:22;;;;;;;11.83;7.30;;;9.70;99.90;;;;;;5072958;28;21035;-72
2021/10/28 01:52:47;;;;;;;9.33;6.50;;;9.70;99.90;;;;;;5072287;28;20239;-71
2021/10/28 01:55:13;;;;;;;12.80;7.10;;;9.70;99.90;;;;;;5069281;28;20218;-73
2021/10/28 01:57:40;;;;;;;11.40;7.30;;;9.70;99.90;;;;;;5063933;28;20242;-71
2021/10/28 02:00:19;;;;;;;9.63;7.10;;;9.70;99.90;;;;;;5072374;28;20456;-71
2021/10/28 02:02:45;;;;;;;9.57;5.43;;;9.60;99.90;;;;;;5072255;28;20457;-71
2021/10/28 02:05:16;;;;;;;10.90;6.20;;;9.60;99.90;;;;;;5072052;28;20987;-71
2021/10/28 02:07:42;;;;;;;10.60;5.40;;;9.60;99.90;;;;;;5068634;28;20456;-71
2021/10/28 02:10:09;;;;;;;7.10;5.07;;;9.60;99.90;;;;;;5066865;28;20807;-72
2021/10/28 02:12:35;;;;;;;7.40;5.00;;;9.60;99.90;;;;;;5068450;28;20462;-71
2021/10/28 02:15:12;;;;;;;5.40;4.33;;;9.50;99.90;;;;;;5051696;28;20451;-71
2021/10/28 02:17:38;;;;;;;4.90;4.30;;;9.50;99.90;;;;;;5048636;28;21018;-73
2021/10/28 02:20:06;;;;;;;6.80;5.00;;;9.50;99.90;;;;;;5051316;28;20454;-71
2021/10/28 02:22:32;;;;;;;9.17;4.90;;;9.50;99.90;;;;;;5053207;28;20474;-70
2021/10/28 02:24:58;;;;;;;7.30;4.93;;;9.40;99.90;;;;;;5068932;28;20507;-71
2021/10/28 02:27:24;;;;;;;5.50;5.00;;;9.50;99.90;;;;;;5071876;28;21001;-71
2021/10/28 02:29:50;;;;;;;5.13;4.30;;;9.40;99.90;;;;;;5039505;28;20832;-71
2021/10/28 02:32:16;;;;;;;11.53;4.70;;;9.40;99.90;;;;;;5048111;28;20555;-71
2021/10/28 02:34:42;;;;;;;6.03;5.33;;;9.40;99.90;;;;;;5048700;28;20459;-71
2021/10/28 02:37:08;;;;;;;7.17;5.30;;;9.40;99.90;;;;;;5057242;28;20322;-72
2021/10/28 02:39:36;;;;;;;9.83;5.53;;;9.40;99.90;;;;;;5080281;28;20876;-71
2021/10/28 02:42:02;;;;;;;7.67;5.77;;;9.40;99.90;;;;;;5049174;28;20445;-71
2021/10/28 02:44:29;;;;;;;7.67;4.93;;;9.40;99.90;;;;;;5053641;28;20464;-71
2021/10/28 02:46:54;;;;;;;5.53;4.20;;;9.40;99.90;;;;;;5079367;28;20478;-70
2021/10/28 02:49:21;;;;;;;10.73;7.00;;;9.40;99.90;;;;;;5052106;28;20480;-71
2021/10/28 02:51:47;;;;;;;9.00;5.83;;;9.40;99.90;;;;;;5052516;28;20219;-71
2021/10/28 02:54:20;;;;;;;12.00;6.33;;;9.40;99.90;;;;;;5048621;28;20864;-70
2021/10/28 02:56:47;;;;;;;9.37;5.90;;;9.40;99.90;;;;;;5035152;28;20457;-71
2021/10/28 02:59:13;;;;;;;12.87;7.10;;;9.40;99.90;;;;;;5064464;28;20975;-71
2021/10/28 03:01:47;;;;;;;8.07;6.00;;;9.40;99.90;;;;;;5032076;28;20450;-71
2021/10/28 03:04:14;;;;;;;11.70;5.77;;;9.40;99.90;;;;;;5046195;28;20461;-71
2021/10/28 03:06:41;;;;;;;8.40;5.90;;;9.40;99.90;;;;;;5050707;28;20489;-72
2021/10/28 03:09:08;;;;;;;11.80;6.07;;;9.40;99.90;;;;;;5046905;28;20467;-71
2021/10/28 03:11:35;;;;;;;12.80;7.03;;;9.40;99.90;;;;;;5048151;28;20956;-74
2021/10/28 03:14:01;;;;;;;9.50;6.20;;;9.40;99.90;;;;;;5047607;28;20459;-72
2021/10/28 03:19:33;;;;;;;;;;;;;;;;;;;;;
2021/10/28 03:27:24;;;;;;;11.57;6.57;;;9.40;99.90;;;;;;5050894;28;20523;-71
2021/10/28 03:29:50;;;;;;;13.90;6.60;;;9.40;99.90;;;;;;5040616;28;20532;-72
2021/10/28 03:32:18;;;;;;;9.80;6.53;;;9.40;99.90;;;;;;5068884;28;20226;-71
2021/10/28 03:34:45;;;;;;;15.47;7.10;;;9.40;99.90;;;;;;5069891;28;20215;-72
2021/10/28 03:37:18;;;;;;;12.00;6.97;;;9.40;99.90;;;;;;5069362;28;20989;-71
2021/10/28 04:30:48;;;;;;;14.33;9.63;;;9.50;99.90;;;;;;5069599;28;20688;-70
2021/10/28 04:33:14;;;;;;;16.70;9.50;;;9.50;99.90;;;;;;5067998;28;20473;-71
2021/10/28 04:35:40;;;;;;;15.47;8.80;;;9.50;99.90;;;;;;5069654;28;20306;-70
2021/10/28 04:38:06;;;;;;;16.63;10.03;;;9.50;99.90;;;;;;5068262;28;20234;-71
2021/10/28 04:40:32;;;;;;;18.67;9.57;;;9.50;99.90;;;;;;5069401;28;20302;-71
2021/10/28 04:42:57;;;;;;;15.90;9.93;;;9.40;99.90;;;;;;5069930;28;21030;-70
2021/10/28 04:45:23;;;;;;;15.43;8.60;;;9.50;99.90;;;;;;5064172;28;20455;-71
2021/10/28 04:47:49;;;;;;;16.07;9.57;;;9.50;99.90;;;;;;5081995;28;20223;-71
2021/10/28 04:50:14;;;;;;;14.90;9.13;;;9.50;99.90;;;;;;5068456;28;20707;-71
2021/10/28 04:52:40;;;;;;;13.23;9.10;;;9.40;99.90;;;;;;5067066;28;20234;-70
2021/10/28 04:55:06;;;;;;;13.43;8.53;;;9.40;99.90;;;;;;5049968;28;20254;-71
2021/10/28 04:57:32;;;;;;;16.63;9.20;;;9.40;99.90;;;;;;5050651;28;20734;-71
2021/10/28 04:59:57;;;;;;;18.37;9.87;;;9.40;99.90;;;;;;5066855;28;20302;-73
2021/10/28 05:02:23;;;;;;;13.50;8.40;;;9.40;99.90;;;;;;5066419;28;20246;-70
2021/10/28 05:04:49;;;;;;;14.93;8.70;;;9.40;99.90;;;;;;5067877;28;20241;-71
2021/10/28 05:07:15;;;;;;;11.73;7.37;;;9.40;99.90;;;;;;5068454;28;20221;-71
2021/10/28 05:09:41;;;;;;;12.60;7.53;;;9.40;99.90;;;;;;5063726;28;20690;-71
2021/10/28 05:12:08;;;;;;;11.50;6.67;;;9.40;99.90;;;;;;5067886;28;20223;-70
2021/10/28 05:14:34;;;;;;;11.33;7.17;;;9.40;99.90;;;;;;5068342;28;20836;-72
2021/10/28 05:16:59;;;;;;;11.77;8.10;;;9.40;99.90;;;;;;5067027;28;20465;-71
2021/10/28 05:19:28;;;;;;;7.57;5.87;;;9.30;99.90;;;;;;5068062;28;20264;-71
2021/10/28 05:21:54;;;;;;;9.17;5.83;;;9.40;99.90;;;;;;5067651;28;20219;-71
2021/10/28 05:24:19;;;;;;;10.30;6.77;;;9.30;99.90;;;;;;5065368;28;20461;-70
2021/10/28 05:26:45;;;;;;;10.53;7.00;;;9.30;99.90;;;;;;5068192;28;20215;-71
2021/10/28 05:29:11;;;;;;;8.50;6.10;;;9.30;99.90;;;;;;5067217;28;20222;-71
2021/10/28 05:31:37;;;;;;;8.23;6.53;;;9.30;99.90;;;;;;5066801;28;20310;-72
2021/10/28 05:34:03;;;;;;;10.43;6.63;;;9.30;99.90;;;;;;5067214;28;20231;-70
2021/10/28 05:36:28;;;;;;;10.77;6.37;;;9.30;99.90;;;;;;5068005;28;20227;-73
2021/10/28 05:38:54;;;;;;;13.40;7.20;;;9.20;99.90;;;;;;5067453;28;20459;-71
2021/10/28 05:41:20;;;;;;;8.87;6.10;;;9.20;99.90;;;;;;5067950;28;20233;-71
2021/10/28 05:43:46;;;;;;;11.00;7.10;;;9.20;99.90;;;;;;5066806;28;20230;-72
2021/10/28 05:46:11;;;;;;;11.83;7.13;;;9.20;99.90;;;;;;5065986;28;20215;-71
2021/10/28 05:48:37;;;;;;;10.73;5.90;;;9.20;99.90;;;;;;5067319;28;20219;-71
2021/10/28 05:51:03;;;;;;;10.47;6.47;;;9.20;99.90;;;;;;5067403;28;20230;-68
2021/10/28 05:53:30;;;;;;;11.30;6.47;;;9.20;99.90;;;;;;5067674;28;20238;-71
2021/10/28 05:55:56;;;;;;;10.37;6.90;;;9.20;99.90;;;;;;5066659;28;21030;-70
2021/10/28 05:58:22;;;;;;;9.10;6.13;;;9.20;99.90;;;;;;5067535;28;20446;-71
2021/10/28 06:00:48;;;;;;;9.70;7.07;;;9.20;99.90;;;;;;5068055;28;20464;-71
2021/10/28 06:03:14;;;;;;;10.90;7.03;;;9.20;99.90;;;;;;5065943;28;20457;-71
2021/10/28 06:05:40;;;;;;;12.07;7.30;;;9.20;99.90;;;;;;5050102;28;20512;-71
2021/10/28 06:08:05;;;;;;;13.50;7.37;;;9.20;99.90;;;;;;5066682;28;20234;-70
2021/10/28 06:10:32;;;;;;;9.80;6.10;;;9.30;99.90;;;;;;5067700;28;20219;-70
2021/10/28 06:13:01;;;;;;;12.67;7.37;;;9.20;99.90;;;;;;5064274;28;20297;-72
2021/10/28 06:15:29;;;;;;;9.20;6.43;;;9.20;99.90;;;;;;5061221;28;20441;-71
2021/10/28 06:17:58;;;;;;;9.47;6.20;;;9.20;99.90;;;;;;5063980;28;20477;-71
2021/10/28 06:20:25;;;;;;;9.77;6.07;;;9.20;99.90;;;;;;5067545;28;20449;-71
2021/10/28 06:22:51;;;;;;;10.47;7.20;;;9.20;99.90;;;;;;5071785;28;20518;-70
2021/10/28 06:25:18;;;;;;;9.83;6.13;;;9.20;99.90;;;;;;5070854;28;20442;-71
2021/10/28 06:27:44;;;;;;;10.60;6.90;;;9.20;99.90;;;;;;5072141;28;20461;-70
2021/10/28 06:30:10;;;;;;;11.63;7.37;;;9.20;99.90;;;;;;5071531;28;20583;-70
2021/10/28 06:32:46;;;;;;;11.60;7.03;;;9.20;99.90;;;;;;5071474;28;20277;-71
2021/10/28 06:35:12;;;;;;;11.53;6.40;;;9.20;99.90;;;;;;5070816;28;20537;-71
2021/10/28 06:37:40;;;;;;;10.30;6.70;;;9.20;99.90;;;;;;5057336;28;20540;-72
2021/10/28 06:40:06;;;;;;;8.17;5.50;;;9.20;99.90;;;;;;5071496;28;20215;-71
2021/10/28 06:42:32;;;;;;;10.03;6.17;;;9.20;99.90;;;;;;5071710;28;20552;-70
2021/10/28 06:44:57;;;;;;;9.87;5.90;;;9.20;99.90;;;;;;5071854;28;20985;-71
2021/10/28 06:47:23;;;;;;;8.37;6.17;;;9.20;99.90;;;;;;5071502;28;20272;-71
2021/10/28 06:49:49;;;;;;;8.77;5.90;;;9.20;99.90;;;;;;5071042;28;20726;-71
2021/10/28 06:52:14;;;;;;;9.13;6.30;;;9.20;99.90;;;;;;5072114;28;20233;-71
2021/10/28 06:54:46;;;;;;;9.87;6.73;;;9.20;99.90;;;;;;5054683;28;20275;-71
2021/10/28 07:02:43;;;;;;;10.57;6.50;;;9.10;99.90;;;;;;5071129;28;20830;-71
2021/10/28 07:05:10;;;;;;;11.23;6.60;;;9.20;99.90;;;;;;5070841;28;21061;-71
2021/10/28 07:07:36;;;;;;;9.50;5.97;;;9.10;99.90;;;;;;5071238;28;20549;-71
2021/10/28 07:10:14;;;;;;;10.87;6.87;;;9.10;99.90;;;;;;5070103;28;20890;-69
2021/10/28 07:15:22;;;;;;;8.33;5.97;;;9.10;99.90;;;;;;5051922;28;20537;-70
2021/10/28 07:18:05;;;;;;;10.57;6.40;;;9.20;99.90;;;;;;5051212;28;20453;-73
2021/10/28 07:20:52;;;;;;;7.90;5.77;;;9.10;99.90;;;;;;5047679;28;20459;-72
2021/10/28 07:34:54;;;;;;;8.33;5.50;;;9.10;99.90;;;;;;5063106;28;20471;-71
2021/10/28 08:21:05;;;;;;;16.90;10.23;;;9.20;99.90;;;;;;5049883;28;20461;-71
2021/10/28 08:24:04;;;;;;;16.37;10.70;;;9.20;99.90;;;;;;5032239;28;20476;-72
2021/10/28 08:29:17;;;;;;;13.27;8.93;;;9.30;99.90;;;;;;5073971;28;20524;-71
2021/10/28 08:31:43;;;;;;;11.77;8.60;;;9.30;99.90;;;;;;5049611;28;20457;-72
2021/10/28 08:34:09;;;;;;;14.73;8.47;;;9.30;99.90;;;;;;5057258;28;20461;-72
2021/10/28 08:36:39;;;;;;;16.10;8.20;;;9.30;99.90;;;;;;5069561;28;20449;-73
2021/10/28 08:39:05;;;;;;;13.60;8.10;;;9.30;99.90;;;;;;5069383;28;20268;-72
2021/10/28 08:41:32;;;;;;;11.50;8.20;;;9.30;99.90;;;;;;5067892;28;20458;-71
2021/10/28 08:44:01;;;;;;;12.13;8.33;;;9.30;99.90;;;;;;5057694;28;20458;-72
2021/10/28 08:46:28;;;;;;;12.50;7.93;;;9.30;99.90;;;;;;5069512;28;20461;-72
2021/10/28 08:48:57;;;;;;;10.93;7.40;;;9.30;99.90;;;;;;5069405;28;20454;-71
2021/10/28 08:51:33;;;;;;;12.47;9.20;;;9.30;99.90;;;;;;5060219;28;20454;-71
2021/10/28 08:56:47;;;;;;;12.30;8.00;;;9.30;99.90;;;;;;5049126;28;20450;-72
2021/10/28 08:59:35;;;;;;;10.60;7.47;;;9.30;99.90;;;;;;5055457;28;20215;-72
2021/10/28 09:24:55;;;;;;;14.87;9.70;;;9.50;99.90;;;;;;5049902;28;21014;-70
2021/10/28 09:27:25;;;;;;;15.80;10.20;;;9.40;99.90;;;;;;5056291;28;20494;-71
2021/10/28 09:30:21;;;;;;;18.70;10.53;;;9.50;99.90;;;;;;5066031;28;20519;-71
2021/10/28 09:32:52;;;;;;;23.90;11.93;;;9.50;99.90;;;;;;5064914;28;21017;-73
2021/10/28 09:44:10;;;;;;;31.60;16.67;;;9.50;99.90;;;;;;5059844;28;20599;-72
2021/10/28 09:51:50;;;;;;;38.70;17.50;;;9.60;99.90;;;;;;5041911;28;20463;-72
2021/10/28 09:54:48;;;;;;;38.23;18.80;;;9.60;99.90;;;;;;5068417;28;20989;-71
2021/10/28 09:57:52;;;;;;;;;;;;;;;;;;;;;
2021/10/28 10:00:14;;;;;;;36.73;20.10;;;9.60;99.90;;;;;;5075927;28;20547;-71
2021/10/28 10:02:45;;;;;;;28.67;17.47;;;9.60;99.90;;;;;;5071982;28;20542;-71
2021/10/28 10:05:23;;;;;;;32.83;17.73;;;9.60;99.90;;;;;;5055041;28;20449;-71
2021/10/28 10:07:54;;;;;;;36.20;18.23;;;9.60;99.90;;;;;;5085132;28;20473;-71
2021/10/28 10:10:25;;;;;;;30.70;18.17;;;9.60;99.90;;;;;;5042584;28;20445;-71
2021/10/28 10:12:56;;;;;;;36.80;17.93;;;9.60;99.90;;;;;;5052096;28;20477;-72
2021/10/28 10:15:22;;;;;;;34.97;18.40;;;9.60;99.90;;;;;;5089117;28;20445;-71
2021/10/28 10:17:52;;;;;;;32.87;18.30;;;9.60;99.90;;;;;;5055474;28;20481;-71
2021/10/28 10:20:21;;;;;;;35.10;18.97;;;9.60;99.90;;;;;;5068959;28;20494;-72
2021/10/28 10:23:12;;;;;;;30.57;17.50;;;9.60;99.90;;;;;;5039927;28;20479;-71
2021/10/28 10:28:52;;;;;;;38.93;18.67;;;9.70;99.90;;;;;;5049202;28;20520;-71
2021/10/28 12:01:29;;;;;;;28.30;12.13;;;9.70;99.90;;;;;;5093439;28;20457;-72
2021/10/28 12:16:14;;;;;;;26.27;14.20;;;9.90;99.90;;;;;;5069089;28;20882;-71
2021/10/28 13:27:55;;;;;;;33.60;15.13;;;10.00;99.90;;;;;;5068921;28;20458;-71
2021/10/28 13:58:43;;;;;;;;;;;;;;;;;;;;;
2021/10/28 14:25:58;;;;;;;27.30;13.27;;;10.20;99.90;;;;;;5063576;28;20510;-73
2021/10/28 15:01:03;;;;;;;39.00;16.37;;;10.20;99.90;;;;;;5085121;28;20836;-71
2021/10/28 15:03:27;;;;;;;29.87;15.93;;;10.20;99.90;;;;;;5050376;28;20461;-71
2021/10/28 15:36:21;;;;;;;26.53;13.83;;;10.30;99.90;;;;;;5073512;28;20473;-71
2021/10/28 15:39:09;;;;;;;29.77;13.40;;;10.30;99.90;;;;;;5066483;28;20467;-71
2021/10/28 16:22:05;;;;;;;21.63;11.23;;;10.20;99.90;;;;;;5063041;28;20484;-74
2021/10/28 16:24:33;;;;;;;21.00;11.57;;;10.20;99.90;;;;;;5072718;28;20453;-71
2021/10/28 16:27:01;;;;;;;18.63;9.33;;;10.20;99.90;;;;;;5045351;28;20226;-72
2021/10/28 16:29:28;;;;;;;22.80;11.80;;;10.20;99.90;;;;;;5065746;28;20458;-71
2021/10/28 16:31:55;;;;;;;26.10;13.00;;;10.20;99.90;;;;;;5049484;28;20537;-71
2021/10/28 16:34:21;;;;;;;21.23;11.37;;;10.20;99.90;;;;;;5051185;28;20985;-73
2021/10/28 16:36:48;;;;;;;27.80;11.90;;;10.20;99.90;;;;;;5068191;28;20454;-72
2021/10/28 16:39:14;;;;;;;20.57;11.37;;;10.20;99.90;;;;;;5063368;28;20873;-71
2021/10/28 16:41:49;;;;;;;22.03;11.97;;;10.20;99.90;;;;;;5069441;28;20461;-71
2021/10/28 16:44:16;;;;;;;26.10;12.83;;;10.20;99.90;;;;;;5068248;28;20513;-72
2021/10/28 16:46:44;;;;;;;19.37;11.57;;;10.20;99.90;;;;;;5069032;28;20970;-71
2021/10/28 16:49:12;;;;;;;22.33;10.63;;;10.20;99.90;;;;;;5068209;28;20465;-71
2021/10/28 16:51:38;;;;;;;23.33;11.83;;;10.20;99.90;;;;;;5069050;28;20493;-72
2021/10/28 16:54:05;;;;;;;24.20;12.60;;;10.20;99.90;;;;;;5048261;28;20466;-71
2021/10/28 16:56:31;;;;;;;21.47;12.30;;;10.20;99.90;;;;;;5065717;28;20449;-70
2021/10/28 16:58:57;;;;;;;18.83;10.93;;;10.20;99.90;;;;;;5085511;28;20465;-71
2021/10/28 17:01:24;;;;;;;20.37;11.13;;;10.20;99.90;;;;;;5068865;28;20446;-71
2021/10/28 17:03:50;;;;;;;17.27;10.50;;;10.20;99.90;;;;;;5068515;28;20227;-70
2021/10/28 17:06:16;;;;;;;22.03;10.17;;;10.20;99.90;;;;;;5067855;28;21019;-71
2021/10/28 17:08:44;;;;;;;20.57;9.93;;;10.20;99.90;;;;;;5047103;28;20264;-72
2021/10/28 17:11:11;;;;;;;22.97;11.50;;;10.20;99.90;;;;;;5067553;28;20461;-73
2021/10/28 17:13:37;;;;;;;23.70;10.57;;;10.20;99.90;;;;;;5046253;28;20462;-72
2021/10/28 17:16:03;;;;;;;18.50;10.47;;;10.20;99.90;;;;;;5043575;28;20469;-70
2021/10/28 17:18:29;;;;;;;23.03;11.20;;;10.20;99.90;;;;;;5068634;28;20460;-71
2021/10/28 17:21:00;;;;;;;25.70;12.47;;;10.20;99.90;;;;;;5046526;28;20449;-71
2021/10/28 17:23:38;;;;;;;26.63;13.97;;;10.20;99.90;;;;;;5068071;28;20265;-70
2021/10/28 17:26:04;;;;;;;36.90;22.70;;;10.20;99.90;;;;;;5051634;28;20542;-71
2021/10/28 17:28:31;;;;;;;33.37;21.13;;;10.20;99.90;;;;;;5068838;28;20456;-72
2021/10/28 17:30:57;;;;;;;43.97;26.87;;;10.20;99.90;;;;;;5062959;28;20984;-71
2021/10/28 17:33:23;;;;;;;43.37;23.07;;;10.20;99.90;;;;;;5058399;28;20542;-72
2021/10/28 17:35:49;;;;;;;27.10;14.60;;;10.20;99.90;;;;;;5068569;28;20228;-73
2021/10/28 17:38:14;;;;;;;27.83;13.23;;;10.20;99.90;;;;;;5068122;28;20306;-71
2021/10/28 17:40:40;;;;;;;31.87;13.37;;;10.20;99.90;;;;;;5049277;28;20689;-71
2021/10/28 17:43:10;;;;;;;23.17;12.20;;;10.20;99.90;;;;;;5051089;28;20227;-70
2021/10/28 17:45:37;;;;;;;20.07;11.30;;;10.20;99.90;;;;;;5070017;28;20249;-71
2021/10/28 17:48:03;;;;;;;26.63;15.93;;;10.20;99.90;;;;;;5051243;28;20446;-70
2021/10/28 17:50:29;;;;;;;31.17;16.30;;;10.20;99.90;;;;;;5051729;28;21026;-71
2021/10/28 17:52:55;;;;;;;31.13;14.30;;;10.20;99.90;;;;;;5067782;28;20560;-71
2021/10/28 17:55:21;;;;;;;26.37;12.63;;;10.20;99.90;;;;;;5068572;28;20716;-71
2021/10/28 17:57:49;;;;;;;28.83;14.20;;;10.20;99.90;;;;;;5069659;28;20224;-71
2021/10/28 18:00:17;;;;;;;28.67;13.70;;;10.20;99.90;;;;;;5051261;28;20887;-71
2021/10/28 18:02:43;;;;;;;30.30;12.90;;;10.20;99.90;;;;;;5068000;28;20465;-71
2021/10/28 18:05:09;;;;;;;26.77;13.80;;;10.20;99.90;;;;;;5067669;28;20464;-71
2021/10/28 18:07:36;;;;;;;26.60;14.97;;;10.20;99.90;;;;;;5051682;28;20446;-72
2021/10/28 18:10:04;;;;;;;31.00;16.37;;;10.20;99.90;;;;;;5067243;28;20450;-71
2021/10/28 18:12:31;;;;;;;31.20;16.83;;;10.20;99.90;;;;;;5067766;28;20219;-75
2021/10/28 18:14:57;;;;;;;32.53;18.50;;;10.20;99.90;;;;;;5050274;28;20484;-70
2021/10/28 18:17:23;;;;;;;29.80;14.57;;;10.20;99.90;;;;;;5052840;28;20966;-71
2021/10/28 18:19:49;;;;;;;34.80;17.10;;;10.20;99.90;;;;;;5071199;28;20219;-71
2021/10/28 18:22:15;;;;;;;29.43;16.70;;;10.20;99.90;;;;;;5070675;28;20230;-71
2021/10/28 18:24:42;;;;;;;41.73;19.57;;;10.20;99.90;;;;;;5070444;28;20500;-72
2021/10/28 18:27:10;;;;;;;41.33;17.70;;;10.20;99.90;;;;;;5053646;28;21005;-72
2021/10/28 18:29:37;;;;;;;35.00;17.57;;;10.20;99.90;;;;;;5078314;28;20531;-72
2021/10/28 18:32:04;;;;;;;38.70;17.63;;;10.20;99.90;;;;;;5077395;28;20461;-72
2021/10/28 18:34:30;;;;;;;40.73;17.97;;;10.20;99.90;;;;;;5072256;28;20476;-71
2021/10/28 18:36:56;;;;;;;39.07;18.50;;;10.20;99.90;;;;;;5071396;28;20457;-71
2021/10/28 18:39:22;;;;;;;35.23;21.13;;;10.20;99.90;;;;;;5054883;28;20353;-72
2021/10/28 18:41:50;;;;;;;44.77;20.90;;;10.20;99.90;;;;;;5051310;28;20478;-71
2021/10/28 18:44:16;;;;;;;50.00;23.47;;;10.20;99.90;;;;;;5062852;28;20310;-71
2021/10/28 18:46:42;;;;;;;55.07;31.10;;;10.20;99.90;;;;;;5053629;28;20523;-71
2021/10/28 18:49:08;;;;;;;59.37;32.40;;;10.20;99.90;;;;;;5069833;28;20897;-71
2021/10/28 18:51:38;;;;;;;57.23;27.23;;;10.20;99.90;;;;;;5087924;28;20235;-70
2021/10/28 18:54:04;;;;;;;54.50;26.33;;;10.20;99.90;;;;;;5070265;28;20537;-71
2021/10/28 18:56:30;;;;;;;60.20;28.77;;;10.20;99.90;;;;;;5053998;28;20453;-71
2021/10/28 18:58:56;;;;;;;50.77;25.70;;;10.20;99.90;;;;;;5069670;28;20453;-72
2021/10/28 19:01:22;;;;;;;69.90;30.27;;;10.20;99.90;;;;;;5084399;28;20469;-71
2021/10/28 19:03:51;;;;;;;53.90;25.23;;;10.20;99.90;;;;;;5066956;28;20583;-72
2021/10/28 19:06:17;;;;;;;51.83;23.93;;;10.20;99.90;;;;;;5086957;28;20215;-71
2021/10/28 19:08:43;;;;;;;48.90;21.37;;;10.20;99.90;;;;;;5070139;28;20446;-71
2021/10/28 19:11:11;;;;;;;44.57;21.03;;;10.20;99.90;;;;;;5070594;28;20526;-71
2021/10/28 19:13:42;;;;;;;43.23;22.97;;;10.20;99.90;;;;;;5053107;28;20465;-71
2021/10/28 19:16:09;;;;;;;45.40;20.67;;;10.20;99.90;;;;;;5068015;28;20449;-70
2021/10/28 19:18:35;;;;;;;46.90;21.20;;;10.20;99.90;;;;;;5051651;28;20480;-75
2021/10/28 19:21:02;;;;;;;48.00;21.40;;;10.20;99.90;;;;;;5069837;28;20511;-71
2021/10/28 19:23:28;;;;;;;36.80;18.07;;;10.20;99.90;;;;;;5069196;28;20982;-72
2021/10/28 19:25:53;;;;;;;46.67;21.87;;;10.20;99.90;;;;;;5050096;28;20474;-71
2021/10/28 19:28:19;;;;;;;45.70;22.03;;;10.20;99.90;;;;;;5068623;28;20691;-72
2021/10/28 19:30:50;;;;;;;43.23;21.10;;;10.20;99.90;;;;;;5071873;28;20582;-71
2021/10/28 19:33:29;;;;;;;42.70;17.83;;;10.20;99.90;;;;;;5066630;28;20628;-71
2021/10/28 19:35:57;;;;;;;40.40;19.17;;;10.20;99.90;;;;;;5067068;28;20532;-71
2021/10/28 19:46:09;;;;;;;41.57;18.70;;;10.20;99.90;;;;;;5069645;28;20599;-70
2021/10/28 19:48:35;;;;;;;45.00;19.00;;;10.20;99.90;;;;;;5066276;28;20457;-71
2021/10/28 19:51:01;;;;;;;52.10;19.53;;;10.20;99.90;;;;;;5069603;28;20454;-70
2021/10/28 19:53:27;;;;;;;39.33;17.37;;;10.20;99.90;;;;;;5069428;28;20472;-71
2021/10/28 19:55:53;;;;;;;42.93;18.97;;;10.20;99.90;;;;;;5050144;28;20837;-71
2021/10/28 19:58:23;;;;;;;47.53;19.60;;;10.20;99.90;;;;;;5083164;28;20222;-71
2021/10/28 20:14:33;;;;;;;40.63;17.60;;;10.20;99.90;;;;;;5068478;28;20521;-73
2021/10/28 20:22:27;;;;;;;46.27;18.67;;;10.20;99.90;;;;;;5068014;28;20452;-70
2021/10/28 20:24:53;;;;;;;38.57;18.10;;;10.20;99.90;;;;;;5085088;28;20532;-71
2021/10/28 20:27:19;;;;;;;45.23;18.40;;;10.20;99.90;;;;;;5068723;28;20272;-72
2021/10/28 20:29:44;;;;;;;45.87;19.07;;;10.20;99.90;;;;;;5069191;28;20223;-71
2021/10/28 20:32:10;;;;;;;46.00;20.17;;;10.20;99.90;;;;;;5069628;28;20261;-69
2021/10/28 20:34:48;;;;;;;41.00;18.10;;;10.20;99.90;;;;;;5070920;28;20242;-71
2021/10/28 20:37:14;;;;;;;45.13;18.17;;;10.20;99.90;;;;;;5075478;28;20245;-71
2021/10/28 20:39:43;;;;;;;47.97;18.97;;;10.20;99.90;;;;;;5085704;28;20958;-71
2021/10/28 20:42:11;;;;;;;52.33;18.90;;;10.20;99.90;;;;;;5067309;28;20542;-71
2021/10/28 20:44:37;;;;;;;44.67;17.33;;;10.20;99.90;;;;;;5067120;28;20460;-73
2021/10/28 20:47:04;;;;;;;47.90;19.23;;;10.20;99.90;;;;;;5068185;28;20835;-70
2021/10/28 20:49:29;;;;;;;46.03;20.43;;;10.20;99.90;;;;;;5068980;28;20708;-70
2021/10/28 20:51:56;;;;;;;44.80;18.40;;;10.20;99.90;;;;;;5068872;28;20497;-72
2021/10/28 20:54:22;;;;;;;47.83;20.53;;;10.20;99.90;;;;;;5046628;28;20227;-71
2021/10/28 20:56:50;;;;;;;49.53;20.30;;;10.20;99.90;;;;;;5084836;28;20896;-71
2021/10/28 20:59:18;;;;;;;46.37;20.03;;;10.20;99.90;;;;;;5066710;28;20450;-72
2021/10/28 21:01:44;;;;;;;45.97;20.27;;;10.20;99.90;;;;;;5064368;28;20541;-71
2021/10/28 21:04:10;;;;;;;47.10;20.67;;;10.20;99.90;;;;;;5068350;28;20489;-72
2021/10/28 21:06:36;;;;;;;52.47;22.97;;;10.20;99.90;;;;;;5068117;28;20559;-71
2021/10/28 21:09:03;;;;;;;47.20;19.70;;;10.20;99.90;;;;;;5068152;28;20352;-71
2021/10/28 21:11:29;;;;;;;49.13;18.70;;;10.20;99.90;;;;;;5067540;28;20525;-71
2021/10/28 21:13:55;;;;;;;53.03;22.57;;;10.20;99.90;;;;;;5067023;28;20549;-71
2021/10/28 21:16:21;;;;;;;42.00;18.00;;;10.20;99.90;;;;;;5066696;28;20270;-71
2021/10/28 21:18:47;;;;;;;49.33;20.17;;;10.20;99.90;;;;;;5069522;28;20711;-71
2021/10/28 21:21:13;;;;;;;54.60;19.30;;;10.20;99.90;;;;;;5067322;28;20532;-72
2021/10/28 21:23:39;;;;;;;47.13;19.67;;;10.20;99.90;;;;;;5068321;28;20226;-72
2021/10/28 21:26:04;;;;;;;45.90;18.47;;;10.20;99.90;;;;;;5068392;28;20506;-72
2021/10/28 21:28:30;;;;;;;47.13;19.67;;;10.20;99.90;;;;;;5052413;28;20631;-72
2021/10/28 21:30:56;;;;;;;53.33;20.07;;;10.20;99.90;;;;;;5068789;28;20269;-71
2021/10/28 21:33:22;;;;;;;47.40;19.40;;;10.20;99.90;;;;;;5068157;28;20284;-72
2021/10/28 21:35:47;;;;;;;37.63;20.07;;;10.20;99.90;;;;;;5085475;28;20225;-71
2021/10/28 21:38:13;;;;;;;49.07;19.63;;;10.20;99.90;;;;;;5047683;28;20537;-71
2021/10/28 21:40:39;;;;;;;51.37;18.50;;;10.20;99.90;;;;;;5080633;28;20231;-71
2021/10/28 21:43:05;;;;;;;36.13;17.20;;;10.20;99.90;;;;;;5049937;28;20223;-74